sensor_id;sensor_type;location;lat;lon;timestamp;temperature;humidity
8152;DHT22;4117;53.622;9.958;2024-03-08T00:01:01;2.00;99.90
8152;DHT22;4117;53.622;9.958;2024-03-08T00:03:28;2.00;99.90
8152;DHT22;4117;53.622;9.958;2024-03-08T00:05:56;1.90;99.90
8152;DHT22;4117;53.622;9.958;2024-03-08T00:08:24;1.90;99.90
8152;DHT22;4117;53.622;9.958;2024-03-08T00:10:51;1.90;99.90
8152;DHT22;4117;53.622;9.958;2024-03-08T00:13:18;1.90;99.90
8152;DHT22;4117;53.622;9.958;2024-03-08T00:15:47;1.90;99.90
8152;DHT22;4117;53.622;9.958;2024-03-08T00:18:14;1.80;99.90
8152;DHT22;4117;53.622;9.958;2024-03-08T00:20:41;1.80;99.90
8152;DHT22;4117;53.622;9.958;2024-03-08T00:23:07;1.80;99.90
8152;DHT22;4117;53.622;9.958;2024-03-08T00:25:36;1.70;99.90
8152;DHT22;4117;53.622;9.958;2024-03-08T00:28:05;1.70;99.90
8152;DHT22;4117;53.622;9.958;2024-03-08T00:30:32;1.70;99.90
8152;DHT22;4117;53.622;9.958;2024-03-08T00:33:00;1.70;99.90
8152;DHT22;4117;53.622;9.958;2024-03-08T00:35:27;1.60;99.90
8152;DHT22;4117;53.622;9.958;2024-03-08T00:37:54;1.60;99.90
8152;DHT22;4117;53.622;9.958;2024-03-08T00:40:22;1.60;99.90
8152;DHT22;4117;53.622;9.958;2024-03-08T00:42:49;1.60;99.90
8152;DHT22;4117;53.622;9.958;2024-03-08T00:45:16;1.60;99.90
8152;DHT22;4117;53.622;9.958;2024-03-08T00:47:43;1.60;99.90
8152;DHT22;4117;53.622;9.958;2024-03-08T00:50:12;1.60;99.90
8152;DHT22;4117;53.622;9.958;2024-03-08T00:52:39;1.60;99.90
8152;DHT22;4117;53.622;9.958;2024-03-08T00:55:07;1.60;99.90
8152;DHT22;4117;53.622;9.958;2024-03-08T00:57:36;1.50;99.90
8152;DHT22;4117;53.622;9.958;2024-03-08T01:00:05;1.50;99.90
8152;DHT22;4117;53.622;9.958;2024-03-08T01:02:35;1.50;99.90
8152;DHT22;4117;53.622;9.958;2024-03-08T01:05:02;1.50;99.90
8152;DHT22;4117;53.622;9.958;2024-03-08T01:07:31;1.40;99.90
8152;DHT22;4117;53.622;9.958;2024-03-08T01:09:58;1.40;99.90
8152;DHT22;4117;53.622;9.958;2024-03-08T01:12:26;1.30;99.90
8152;DHT22;4117;53.622;9.958;2024-03-08T01:14:53;1.30;99.90
8152;DHT22;4117;53.622;9.958;2024-03-08T01:17:20;1.30;99.90
8152;DHT22;4117;53.622;9.958;2024-03-08T01:19:47;1.20;99.90
8152;DHT22;4117;53.622;9.958;2024-03-08T01:22:14;1.10;99.90
8152;DHT22;4117;53.622;9.958;2024-03-08T01:24:42;1.10;99.90
8152;DHT22;4117;53.622;9.958;2024-03-08T01:27:09;1.10;99.90
8152;DHT22;4117;53.622;9.958;2024-03-08T01:29:37;1.10;99.90
8152;DHT22;4117;53.622;9.958;2024-03-08T01:32:04;1.10;99.90
8152;DHT22;4117;53.622;9.958;2024-03-08T01:34:32;1.10;99.90
8152;DHT22;4117;53.622;9.958;2024-03-08T01:36:59;1.10;99.90
8152;DHT22;4117;53.622;9.958;2024-03-08T01:39:26;1.10;99.90
8152;DHT22;4117;53.622;9.958;2024-03-08T01:41:55;1.00;99.90
8152;DHT22;4117;53.622;9.958;2024-03-08T01:44:22;1.00;99.90
8152;DHT22;4117;53.622;9.958;2024-03-08T01:46:50;0.90;99.90
8152;DHT22;4117;53.622;9.958;2024-03-08T01:49:18;0.90;99.90
8152;DHT22;4117;53.622;9.958;2024-03-08T01:51:47;0.90;99.90
8152;DHT22;4117;53.622;9.958;2024-03-08T01:54:17;0.80;99.90
8152;DHT22;4117;53.622;9.958;2024-03-08T01:56:46;0.80;99.90
8152;DHT22;4117;53.622;9.958;2024-03-08T01:59:15;0.80;99.90
8152;DHT22;4117;53.622;9.958;2024-03-08T02:01:42;0.80;99.90
8152;DHT22;4117;53.622;9.958;2024-03-08T02:04:10;0.70;99.90
8152;DHT22;4117;53.622;9.958;2024-03-08T02:06:36;0.70;99.90
8152;DHT22;4117;53.622;9.958;2024-03-08T02:09:04;0.70;99.90
8152;DHT22;4117;53.622;9.958;2024-03-08T02:11:33;0.60;99.90
8152;DHT22;4117;53.622;9.958;2024-03-08T02:14:01;0.60;99.90
8152;DHT22;4117;53.622;9.958;2024-03-08T02:16:29;0.60;99.90
8152;DHT22;4117;53.622;9.958;2024-03-08T02:18:56;0.50;99.90
8152;DHT22;4117;53.622;9.958;2024-03-08T02:21:25;0.50;99.90
8152;DHT22;4117;53.622;9.958;2024-03-08T02:23:53;0.40;99.90
8152;DHT22;4117;53.622;9.958;2024-03-08T02:26:20;0.40;99.90
8152;DHT22;4117;53.622;9.958;2024-03-08T02:28:48;0.40;99.90
8152;DHT22;4117;53.622;9.958;2024-03-08T02:31:15;0.30;99.90
8152;DHT22;4117;53.622;9.958;2024-03-08T02:33:42;0.30;99.90
8152;DHT22;4117;53.622;9.958;2024-03-08T02:36:09;0.30;99.90
8152;DHT22;4117;53.622;9.958;2024-03-08T02:38:38;0.20;99.90
8152;DHT22;4117;53.622;9.958;2024-03-08T02:41:06;0.20;99.90
8152;DHT22;4117;53.622;9.958;2024-03-08T02:43:34;0.20;99.90
8152;DHT22;4117;53.622;9.958;2024-03-08T02:46:01;0.20;99.90
8152;DHT22;4117;53.622;9.958;2024-03-08T02:48:28;0.10;99.90
8152;DHT22;4117;53.622;9.958;2024-03-08T02:50:55;0.10;99.90
8152;DHT22;4117;53.622;9.958;2024-03-08T02:53:22;0.10;99.90
8152;DHT22;4117;53.622;9.958;2024-03-08T02:55:51;0.10;99.90
8152;DHT22;4117;53.622;9.958;2024-03-08T02:58:18;0.10;99.90
8152;DHT22;4117;53.622;9.958;2024-03-08T03:00:45;0.10;99.90
8152;DHT22;4117;53.622;9.958;2024-03-08T03:03:12;0.10;99.90
8152;DHT22;4117;53.622;9.958;2024-03-08T03:05:41;0.00;99.90
8152;DHT22;4117;53.622;9.958;2024-03-08T03:08:10;0.00;99.90
8152;DHT22;4117;53.622;9.958;2024-03-08T03:10:37;0.00;99.90
8152;DHT22;4117;53.622;9.958;2024-03-08T03:13:06;0.00;99.90
8152;DHT22;4117;53.622;9.958;2024-03-08T03:15:34;0.00;99.90
8152;DHT22;4117;53.622;9.958;2024-03-08T03:18:02;-0.10;99.90
8152;DHT22;4117;53.622;9.958;2024-03-08T03:20:29;0.00;99.90
8152;DHT22;4117;53.622;9.958;2024-03-08T03:22:59;-0.10;99.90
8152;DHT22;4117;53.622;9.958;2024-03-08T03:25:29;-0.20;99.90
8152;DHT22;4117;53.622;9.958;2024-03-08T03:27:59;-0.20;99.90
8152;DHT22;4117;53.622;9.958;2024-03-08T03:30:28;-0.20;99.90
8152;DHT22;4117;53.622;9.958;2024-03-08T03:32:58;-0.10;99.90
8152;DHT22;4117;53.622;9.958;2024-03-08T03:35:26;-0.20;99.90
8152;DHT22;4117;53.622;9.958;2024-03-08T03:37:53;-0.20;99.90
8152;DHT22;4117;53.622;9.958;2024-03-08T03:40:31;-0.20;99.90
8152;DHT22;4117;53.622;9.958;2024-03-08T03:42:58;-0.20;99.90
8152;DHT22;4117;53.622;9.958;2024-03-08T03:45:26;-0.30;99.90
8152;DHT22;4117;53.622;9.958;2024-03-08T03:47:54;-0.20;99.90
8152;DHT22;4117;53.622;9.958;2024-03-08T03:50:21;-0.30;99.90
8152;DHT22;4117;53.622;9.958;2024-03-08T03:52:49;-0.30;99.90
8152;DHT22;4117;53.622;9.958;2024-03-08T03:55:16;-0.30;99.90
8152;DHT22;4117;53.622;9.958;2024-03-08T03:57:43;-0.30;99.90
8152;DHT22;4117;53.622;9.958;2024-03-08T04:00:12;-0.30;99.90
8152;DHT22;4117;53.622;9.958;2024-03-08T04:02:40;-0.30;99.90
8152;DHT22;4117;53.622;9.958;2024-03-08T04:05:09;-0.30;99.90
8152;DHT22;4117;53.622;9.958;2024-03-08T04:07:37;-0.30;99.90
8152;DHT22;4117;53.622;9.958;2024-03-08T04:10:05;-0.30;99.90
8152;DHT22;4117;53.622;9.958;2024-03-08T04:12:32;-0.30;99.90
8152;DHT22;4117;53.622;9.958;2024-03-08T04:14:59;-0.30;99.90
8152;DHT22;4117;53.622;9.958;2024-03-08T04:17:26;-0.30;99.90
8152;DHT22;4117;53.622;9.958;2024-03-08T04:19:53;-0.30;99.90
8152;DHT22;4117;53.622;9.958;2024-03-08T04:22:21;-0.30;99.90
8152;DHT22;4117;53.622;9.958;2024-03-08T04:24:48;-0.30;99.90
8152;DHT22;4117;53.622;9.958;2024-03-08T04:27:16;-0.30;99.90
8152;DHT22;4117;53.622;9.958;2024-03-08T04:29:43;-0.30;99.90
8152;DHT22;4117;53.622;9.958;2024-03-08T04:32:10;-0.40;99.90
8152;DHT22;4117;53.622;9.958;2024-03-08T04:34:39;-0.40;99.90
8152;DHT22;4117;53.622;9.958;2024-03-08T04:37:06;-0.40;99.90
8152;DHT22;4117;53.622;9.958;2024-03-08T04:39:37;-0.40;99.90
8152;DHT22;4117;53.622;9.958;2024-03-08T04:42:05;-0.50;99.90
8152;DHT22;4117;53.622;9.958;2024-03-08T04:44:35;-0.50;99.90
8152;DHT22;4117;53.622;9.958;2024-03-08T04:47:03;-0.50;99.90
8152;DHT22;4117;53.622;9.958;2024-03-08T04:49:31;-0.40;99.90
8152;DHT22;4117;53.622;9.958;2024-03-08T04:52:01;-0.50;99.90
8152;DHT22;4117;53.622;9.958;2024-03-08T04:54:28;-0.40;99.90
8152;DHT22;4117;53.622;9.958;2024-03-08T04:56:56;-0.40;99.90
8152;DHT22;4117;53.622;9.958;2024-03-08T04:59:25;-0.40;99.90
8152;DHT22;4117;53.622;9.958;2024-03-08T05:01:52;-0.40;99.90
8152;DHT22;4117;53.622;9.958;2024-03-08T05:04:19;-0.40;99.90
8152;DHT22;4117;53.622;9.958;2024-03-08T05:06:46;-0.40;99.90
8152;DHT22;4117;53.622;9.958;2024-03-08T05:09:14;-0.40;99.90
8152;DHT22;4117;53.622;9.958;2024-03-08T05:11:42;-0.40;99.90
8152;DHT22;4117;53.622;9.958;2024-03-08T05:14:11;-0.40;99.90
8152;DHT22;4117;53.622;9.958;2024-03-08T05:16:40;-0.30;99.90
8152;DHT22;4117;53.622;9.958;2024-03-08T05:19:07;-0.40;99.90
8152;DHT22;4117;53.622;9.958;2024-03-08T05:21:34;-0.30;99.90
8152;DHT22;4117;53.622;9.958;2024-03-08T05:24:01;-0.30;99.90
8152;DHT22;4117;53.622;9.958;2024-03-08T05:26:29;-0.30;99.90
8152;DHT22;4117;53.622;9.958;2024-03-08T05:28:58;-0.30;99.90
8152;DHT22;4117;53.622;9.958;2024-03-08T05:31:27;-0.30;99.90
8152;DHT22;4117;53.622;9.958;2024-03-08T05:33:54;-0.40;99.90
8152;DHT22;4117;53.622;9.958;2024-03-08T05:36:21;-0.40;99.90
8152;DHT22;4117;53.622;9.958;2024-03-08T05:38:48;-0.40;99.90
8152;DHT22;4117;53.622;9.958;2024-03-08T05:41:16;-0.40;99.90
8152;DHT22;4117;53.622;9.958;2024-03-08T05:43:43;-0.40;99.90
8152;DHT22;4117;53.622;9.958;2024-03-08T05:46:10;-0.40;99.90
8152;DHT22;4117;53.622;9.958;2024-03-08T05:48:39;-0.40;99.90
8152;DHT22;4117;53.622;9.958;2024-03-08T05:51:06;-0.40;99.90
8152;DHT22;4117;53.622;9.958;2024-03-08T05:53:33;-0.40;99.90
8152;DHT22;4117;53.622;9.958;2024-03-08T05:56:00;-0.30;99.90
8152;DHT22;4117;53.622;9.958;2024-03-08T05:58:29;-0.40;99.90
8152;DHT22;4117;53.622;9.958;2024-03-08T06:00:57;-0.40;99.90
8152;DHT22;4117;53.622;9.958;2024-03-08T06:03:24;-0.30;99.90
8152;DHT22;4117;53.622;9.958;2024-03-08T06:05:52;-0.40;99.90
8152;DHT22;4117;53.622;9.958;2024-03-08T06:08:19;-0.40;99.90
8152;DHT22;4117;53.622;9.958;2024-03-08T06:10:46;-0.40;99.90
8152;DHT22;4117;53.622;9.958;2024-03-08T06:13:18;-0.40;99.90
8152;DHT22;4117;53.622;9.958;2024-03-08T06:15:45;-0.30;99.90
8152;DHT22;4117;53.622;9.958;2024-03-08T06:18:12;-0.40;99.90
8152;DHT22;4117;53.622;9.958;2024-03-08T06:20:40;-0.40;99.90
8152;DHT22;4117;53.622;9.958;2024-03-08T06:23:10;-0.40;99.90
8152;DHT22;4117;53.622;9.958;2024-03-08T06:25:37;-0.40;99.90
8152;DHT22;4117;53.622;9.958;2024-03-08T06:28:05;-0.30;99.90
8152;DHT22;4117;53.622;9.958;2024-03-08T06:30:32;-0.30;99.90
8152;DHT22;4117;53.622;9.958;2024-03-08T06:33:00;-0.20;99.90
8152;DHT22;4117;53.622;9.958;2024-03-08T06:35:27;-0.20;99.90
8152;DHT22;4117;53.622;9.958;2024-03-08T06:37:54;-0.20;99.90
8152;DHT22;4117;53.622;9.958;2024-03-08T06:40:22;-0.20;99.90
8152;DHT22;4117;53.622;9.958;2024-03-08T06:42:49;-0.20;99.90
8152;DHT22;4117;53.622;9.958;2024-03-08T06:45:17;-0.20;99.90
8152;DHT22;4117;53.622;9.958;2024-03-08T06:47:46;-0.20;99.90
8152;DHT22;4117;53.622;9.958;2024-03-08T06:50:13;-0.10;99.90
8152;DHT22;4117;53.622;9.958;2024-03-08T06:52:40;-0.10;99.90
8152;DHT22;4117;53.622;9.958;2024-03-08T06:55:08;-0.10;99.90
8152;DHT22;4117;53.622;9.958;2024-03-08T06:57:38;-0.10;99.90
8152;DHT22;4117;53.622;9.958;2024-03-08T07:00:07;0.00;99.90
8152;DHT22;4117;53.622;9.958;2024-03-08T07:02:35;0.00;99.90
8152;DHT22;4117;53.622;9.958;2024-03-08T07:05:02;0.10;99.90
8152;DHT22;4117;53.622;9.958;2024-03-08T07:07:30;0.10;99.90
8152;DHT22;4117;53.622;9.958;2024-03-08T07:09:57;0.10;99.90
8152;DHT22;4117;53.622;9.958;2024-03-08T07:12:24;0.10;99.90
8152;DHT22;4117;53.622;9.958;2024-03-08T07:14:53;0.20;99.90
8152;DHT22;4117;53.622;9.958;2024-03-08T07:17:20;0.30;99.90
8152;DHT22;4117;53.622;9.958;2024-03-08T07:19:47;0.40;99.90
8152;DHT22;4117;53.622;9.958;2024-03-08T07:22:14;0.40;99.90
8152;DHT22;4117;53.622;9.958;2024-03-08T07:24:42;0.40;99.90
8152;DHT22;4117;53.622;9.958;2024-03-08T07:27:30;0.40;99.90
8152;DHT22;4117;53.622;9.958;2024-03-08T07:29:58;0.50;99.90
8152;DHT22;4117;53.622;9.958;2024-03-08T07:32:26;0.60;99.90
8152;DHT22;4117;53.622;9.958;2024-03-08T07:34:55;0.60;99.90
8152;DHT22;4117;53.622;9.958;2024-03-08T07:37:22;0.70;99.90
8152;DHT22;4117;53.622;9.958;2024-03-08T07:39:49;0.80;99.90
8152;DHT22;4117;53.622;9.958;2024-03-08T07:42:16;0.90;99.90
8152;DHT22;4117;53.622;9.958;2024-03-08T07:44:43;1.00;99.90
8152;DHT22;4117;53.622;9.958;2024-03-08T07:47:13;1.10;99.90
8152;DHT22;4117;53.622;9.958;2024-03-08T07:49:40;1.10;99.90
8152;DHT22;4117;53.622;9.958;2024-03-08T07:52:07;1.20;99.90
8152;DHT22;4117;53.622;9.958;2024-03-08T07:54:35;1.30;99.90
8152;DHT22;4117;53.622;9.958;2024-03-08T07:57:02;1.40;99.90
8152;DHT22;4117;53.622;9.958;2024-03-08T07:59:32;1.50;99.90
8152;DHT22;4117;53.622;9.958;2024-03-08T08:01:58;1.60;99.90
8152;DHT22;4117;53.622;9.958;2024-03-08T08:04:27;1.70;99.90
8152;DHT22;4117;53.622;9.958;2024-03-08T08:06:54;1.80;99.90
8152;DHT22;4117;53.622;9.958;2024-03-08T08:09:22;1.90;99.90
8152;DHT22;4117;53.622;9.958;2024-03-08T08:11:59;1.90;99.90
8152;DHT22;4117;53.622;9.958;2024-03-08T08:14:27;1.90;99.90
8152;DHT22;4117;53.622;9.958;2024-03-08T08:16:54;2.00;99.90
8152;DHT22;4117;53.622;9.958;2024-03-08T08:19:32;2.10;99.90
8152;DHT22;4117;53.622;9.958;2024-03-08T08:21:59;2.10;99.90
8152;DHT22;4117;53.622;9.958;2024-03-08T08:24:26;2.20;99.90
8152;DHT22;4117;53.622;9.958;2024-03-08T08:26:53;2.20;99.90
8152;DHT22;4117;53.622;9.958;2024-03-08T08:29:21;2.30;99.90
8152;DHT22;4117;53.622;9.958;2024-03-08T08:31:48;2.30;99.90
8152;DHT22;4117;53.622;9.958;2024-03-08T08:34:16;2.40;99.90
8152;DHT22;4117;53.622;9.958;2024-03-08T08:36:46;2.50;99.90
8152;DHT22;4117;53.622;9.958;2024-03-08T08:39:16;2.50;99.90
8152;DHT22;4117;53.622;9.958;2024-03-08T08:41:43;2.60;99.90
8152;DHT22;4117;53.622;9.958;2024-03-08T08:44:10;2.60;99.90
8152;DHT22;4117;53.622;9.958;2024-03-08T08:46:38;2.70;99.90
8152;DHT22;4117;53.622;9.958;2024-03-08T08:49:05;2.80;99.90
8152;DHT22;4117;53.622;9.958;2024-03-08T08:51:33;2.80;99.90
8152;DHT22;4117;53.622;9.958;2024-03-08T08:54:02;2.90;99.90
8152;DHT22;4117;53.622;9.958;2024-03-08T08:56:32;2.90;99.90
8152;DHT22;4117;53.622;9.958;2024-03-08T08:58:59;3.00;99.90
8152;DHT22;4117;53.622;9.958;2024-03-08T09:01:26;3.00;99.90
8152;DHT22;4117;53.622;9.958;2024-03-08T09:03:54;3.10;99.90
8152;DHT22;4117;53.622;9.958;2024-03-08T09:06:21;3.20;99.90
8152;DHT22;4117;53.622;9.958;2024-03-08T09:08:48;3.30;99.90
8152;DHT22;4117;53.622;9.958;2024-03-08T09:11:16;3.30;99.90
8152;DHT22;4117;53.622;9.958;2024-03-08T09:13:44;3.30;99.90
8152;DHT22;4117;53.622;9.958;2024-03-08T09:16:12;3.50;99.90
8152;DHT22;4117;53.622;9.958;2024-03-08T09:18:39;3.40;99.90
8152;DHT22;4117;53.622;9.958;2024-03-08T09:21:07;3.50;99.90
8152;DHT22;4117;53.622;9.958;2024-03-08T09:23:35;3.60;99.90
8152;DHT22;4117;53.622;9.958;2024-03-08T09:26:02;3.60;99.90
8152;DHT22;4117;53.622;9.958;2024-03-08T09:28:31;3.60;99.90
8152;DHT22;4117;53.622;9.958;2024-03-08T09:30:58;3.60;99.90
8152;DHT22;4117;53.622;9.958;2024-03-08T09:33:26;3.70;99.90
8152;DHT22;4117;53.622;9.958;2024-03-08T09:35:54;3.80;99.90
8152;DHT22;4117;53.622;9.958;2024-03-08T09:38:23;3.80;99.90
8152;DHT22;4117;53.622;9.958;2024-03-08T09:40:51;3.90;99.90
8152;DHT22;4117;53.622;9.958;2024-03-08T09:43:18;4.00;99.90
8152;DHT22;4117;53.622;9.958;2024-03-08T09:45:49;4.10;99.90
8152;DHT22;4117;53.622;9.958;2024-03-08T09:48:17;4.20;99.90
8152;DHT22;4117;53.622;9.958;2024-03-08T09:50:46;4.20;99.90
8152;DHT22;4117;53.622;9.958;2024-03-08T09:53:13;4.30;99.90
8152;DHT22;4117;53.622;9.958;2024-03-08T09:55:41;4.30;99.90
8152;DHT22;4117;53.622;9.958;2024-03-08T09:58:12;4.40;99.90
8152;DHT22;4117;53.622;9.958;2024-03-08T10:01:21;4.40;99.90
8152;DHT22;4117;53.622;9.958;2024-03-08T10:03:48;4.40;99.90
8152;DHT22;4117;53.622;9.958;2024-03-08T10:06:16;4.40;99.90
8152;DHT22;4117;53.622;9.958;2024-03-08T10:08:42;4.50;99.90
8152;DHT22;4117;53.622;9.958;2024-03-08T10:11:10;4.50;99.90
8152;DHT22;4117;53.622;9.958;2024-03-08T10:13:38;4.50;99.90
8152;DHT22;4117;53.622;9.958;2024-03-08T10:16:06;4.70;99.90
8152;DHT22;4117;53.622;9.958;2024-03-08T10:18:35;4.80;99.90
8152;DHT22;4117;53.622;9.958;2024-03-08T10:21:04;4.80;99.90
8152;DHT22;4117;53.622;9.958;2024-03-08T10:23:31;4.90;99.90
8152;DHT22;4117;53.622;9.958;2024-03-08T10:26:09;4.90;99.90
8152;DHT22;4117;53.622;9.958;2024-03-08T10:28:36;5.00;99.90
8152;DHT22;4117;53.622;9.958;2024-03-08T10:31:03;5.00;99.90
8152;DHT22;4117;53.622;9.958;2024-03-08T10:33:32;5.00;99.90
8152;DHT22;4117;53.622;9.958;2024-03-08T10:36:00;5.00;99.90
8152;DHT22;4117;53.622;9.958;2024-03-08T10:38:31;5.10;99.90
8152;DHT22;4117;53.622;9.958;2024-03-08T10:41:00;5.20;99.90
8152;DHT22;4117;53.622;9.958;2024-03-08T10:43:28;5.20;99.90
8152;DHT22;4117;53.622;9.958;2024-03-08T10:46:11;5.20;99.90
8152;DHT22;4117;53.622;9.958;2024-03-08T10:48:44;5.40;99.90
8152;DHT22;4117;53.622;9.958;2024-03-08T10:51:14;5.40;99.90
8152;DHT22;4117;53.622;9.958;2024-03-08T10:53:42;5.40;99.90
8152;DHT22;4117;53.622;9.958;2024-03-08T10:56:11;5.40;99.90
8152;DHT22;4117;53.622;9.958;2024-03-08T10:58:41;5.40;99.90
8152;DHT22;4117;53.622;9.958;2024-03-08T11:01:09;5.50;99.90
8152;DHT22;4117;53.622;9.958;2024-03-08T11:03:47;5.70;99.90
8152;DHT22;4117;53.622;9.958;2024-03-08T11:06:29;5.70;99.90
8152;DHT22;4117;53.622;9.958;2024-03-08T11:08:56;5.80;99.90
8152;DHT22;4117;53.622;9.958;2024-03-08T11:11:25;5.80;99.90
8152;DHT22;4117;53.622;9.958;2024-03-08T11:13:55;6.00;99.90
8152;DHT22;4117;53.622;9.958;2024-03-08T11:16:40;6.10;99.90
8152;DHT22;4117;53.622;9.958;2024-03-08T11:19:25;6.10;99.90
8152;DHT22;4117;53.622;9.958;2024-03-08T11:22:00;6.20;99.90
8152;DHT22;4117;53.622;9.958;2024-03-08T11:24:27;6.30;99.90
8152;DHT22;4117;53.622;9.958;2024-03-08T11:26:57;6.30;99.90
8152;DHT22;4117;53.622;9.958;2024-03-08T11:29:36;6.30;99.90
8152;DHT22;4117;53.622;9.958;2024-03-08T11:32:08;6.40;99.90
8152;DHT22;4117;53.622;9.958;2024-03-08T11:34:36;6.40;99.90
8152;DHT22;4117;53.622;9.958;2024-03-08T11:37:11;6.50;99.90
8152;DHT22;4117;53.622;9.958;2024-03-08T11:39:39;6.50;99.90
8152;DHT22;4117;53.622;9.958;2024-03-08T11:42:06;6.70;99.90
8152;DHT22;4117;53.622;9.958;2024-03-08T11:44:33;6.70;99.90
8152;DHT22;4117;53.622;9.958;2024-03-08T11:47:01;6.70;99.90
8152;DHT22;4117;53.622;9.958;2024-03-08T11:49:31;6.80;99.90
8152;DHT22;4117;53.622;9.958;2024-03-08T11:51:58;6.90;99.90
8152;DHT22;4117;53.622;9.958;2024-03-08T11:54:27;7.10;99.90
8152;DHT22;4117;53.622;9.958;2024-03-08T11:56:55;7.00;99.90
8152;DHT22;4117;53.622;9.958;2024-03-08T11:59:26;7.10;99.90
8152;DHT22;4117;53.622;9.958;2024-03-08T12:02:14;7.20;99.90
8152;DHT22;4117;53.622;9.958;2024-03-08T12:04:41;7.30;99.90
8152;DHT22;4117;53.622;9.958;2024-03-08T12:07:11;7.20;99.90
8152;DHT22;4117;53.622;9.958;2024-03-08T12:09:41;7.20;99.90
8152;DHT22;4117;53.622;9.958;2024-03-08T12:12:12;7.30;99.90
8152;DHT22;4117;53.622;9.958;2024-03-08T12:14:42;7.50;99.90
8152;DHT22;4117;53.622;9.958;2024-03-08T12:17:10;7.60;99.90
8152;DHT22;4117;53.622;9.958;2024-03-08T12:19:37;7.70;99.90
8152;DHT22;4117;53.622;9.958;2024-03-08T12:22:08;7.90;99.90
8152;DHT22;4117;53.622;9.958;2024-03-08T12:24:39;7.90;99.90
8152;DHT22;4117;53.622;9.958;2024-03-08T12:27:19;7.90;99.90
8152;DHT22;4117;53.622;9.958;2024-03-08T12:29:46;7.90;99.90
8152;DHT22;4117;53.622;9.958;2024-03-08T12:32:13;8.00;99.90
8152;DHT22;4117;53.622;9.958;2024-03-08T12:34:40;8.00;99.90
8152;DHT22;4117;53.622;9.958;2024-03-08T12:37:10;8.20;99.90
8152;DHT22;4117;53.622;9.958;2024-03-08T12:39:40;8.10;99.90
8152;DHT22;4117;53.622;9.958;2024-03-08T12:42:07;8.10;99.90
8152;DHT22;4117;53.622;9.958;2024-03-08T12:44:36;8.10;99.90
8152;DHT22;4117;53.622;9.958;2024-03-08T12:47:08;8.10;99.90
8152;DHT22;4117;53.622;9.958;2024-03-08T12:49:35;8.10;99.90
8152;DHT22;4117;53.622;9.958;2024-03-08T12:52:02;8.20;99.90
8152;DHT22;4117;53.622;9.958;2024-03-08T12:54:29;8.10;99.90
8152;DHT22;4117;53.622;9.958;2024-03-08T12:56:56;7.90;99.90
8152;DHT22;4117;53.622;9.958;2024-03-08T12:59:24;8.00;99.90
8152;DHT22;4117;53.622;9.958;2024-03-08T13:01:53;8.00;99.90
8152;DHT22;4117;53.622;9.958;2024-03-08T13:04:21;7.90;99.90
8152;DHT22;4117;53.622;9.958;2024-03-08T13:06:48;7.90;99.90
8152;DHT22;4117;53.622;9.958;2024-03-08T13:09:16;7.90;99.90
8152;DHT22;4117;53.622;9.958;2024-03-08T13:11:45;7.90;99.90
8152;DHT22;4117;53.622;9.958;2024-03-08T13:14:12;8.00;99.90
8152;DHT22;4117;53.622;9.958;2024-03-08T13:16:39;8.00;99.90
8152;DHT22;4117;53.622;9.958;2024-03-08T13:19:07;7.90;99.90
8152;DHT22;4117;53.622;9.958;2024-03-08T13:21:34;8.00;99.90
8152;DHT22;4117;53.622;9.958;2024-03-08T13:24:01;7.90;99.90
8152;DHT22;4117;53.622;9.958;2024-03-08T13:26:28;7.90;99.90
8152;DHT22;4117;53.622;9.958;2024-03-08T13:28:58;8.00;99.90
8152;DHT22;4117;53.622;9.958;2024-03-08T13:31:25;7.90;99.90
8152;DHT22;4117;53.622;9.958;2024-03-08T13:33:52;7.90;99.90
8152;DHT22;4117;53.622;9.958;2024-03-08T13:36:25;7.90;99.90
8152;DHT22;4117;53.622;9.958;2024-03-08T13:38:55;7.90;99.90
8152;DHT22;4117;53.622;9.958;2024-03-08T13:41:24;8.10;99.90
8152;DHT22;4117;53.622;9.958;2024-03-08T13:43:51;8.10;99.90
8152;DHT22;4117;53.622;9.958;2024-03-08T13:46:21;8.10;99.90
8152;DHT22;4117;53.622;9.958;2024-03-08T13:48:48;8.20;99.90
8152;DHT22;4117;53.622;9.958;2024-03-08T13:51:16;8.10;99.90
8152;DHT22;4117;53.622;9.958;2024-03-08T13:53:45;8.10;99.90
8152;DHT22;4117;53.622;9.958;2024-03-08T13:56:12;8.10;99.90
8152;DHT22;4117;53.622;9.958;2024-03-08T13:58:40;8.10;99.90
8152;DHT22;4117;53.622;9.958;2024-03-08T14:01:09;8.20;99.90
8152;DHT22;4117;53.622;9.958;2024-03-08T14:03:37;8.20;99.90
8152;DHT22;4117;53.622;9.958;2024-03-08T14:06:07;8.20;99.90
8152;DHT22;4117;53.622;9.958;2024-03-08T14:08:35;8.10;99.90
8152;DHT22;4117;53.622;9.958;2024-03-08T14:11:05;8.20;99.90
8152;DHT22;4117;53.622;9.958;2024-03-08T14:13:41;8.20;99.90
8152;DHT22;4117;53.622;9.958;2024-03-08T14:16:10;8.20;99.90
8152;DHT22;4117;53.622;9.958;2024-03-08T14:18:37;8.20;99.90
8152;DHT22;4117;53.622;9.958;2024-03-08T14:21:05;8.20;99.90
8152;DHT22;4117;53.622;9.958;2024-03-08T14:23:34;8.30;99.90
8152;DHT22;4117;53.622;9.958;2024-03-08T14:26:02;8.30;99.90
8152;DHT22;4117;53.622;9.958;2024-03-08T14:28:30;8.30;99.90
8152;DHT22;4117;53.622;9.958;2024-03-08T14:30:58;8.30;99.90
8152;DHT22;4117;53.622;9.958;2024-03-08T14:33:28;8.30;99.90
8152;DHT22;4117;53.622;9.958;2024-03-08T14:35:55;8.40;99.90
8152;DHT22;4117;53.622;9.958;2024-03-08T14:38:22;8.40;99.90
8152;DHT22;4117;53.622;9.958;2024-03-08T14:40:53;8.40;99.90
8152;DHT22;4117;53.622;9.958;2024-03-08T14:43:20;8.40;99.90
8152;DHT22;4117;53.622;9.958;2024-03-08T14:45:49;8.40;99.90
8152;DHT22;4117;53.622;9.958;2024-03-08T14:48:18;8.40;99.90
8152;DHT22;4117;53.622;9.958;2024-03-08T14:50:45;8.40;99.90
8152;DHT22;4117;53.622;9.958;2024-03-08T14:53:13;8.30;99.90
8152;DHT22;4117;53.622;9.958;2024-03-08T14:55:41;8.40;99.90
8152;DHT22;4117;53.622;9.958;2024-03-08T14:58:09;8.50;99.90
8152;DHT22;4117;53.622;9.958;2024-03-08T15:00:36;8.40;99.90
8152;DHT22;4117;53.622;9.958;2024-03-08T15:03:07;8.50;99.90
8152;DHT22;4117;53.622;9.958;2024-03-08T15:05:40;8.50;99.90
8152;DHT22;4117;53.622;9.958;2024-03-08T15:08:13;8.50;99.90
8152;DHT22;4117;53.622;9.958;2024-03-08T15:10:46;8.60;99.90
8152;DHT22;4117;53.622;9.958;2024-03-08T15:13:13;8.50;99.90
8152;DHT22;4117;53.622;9.958;2024-03-08T15:15:46;8.50;99.90
8152;DHT22;4117;53.622;9.958;2024-03-08T15:18:22;8.50;99.90
8152;DHT22;4117;53.622;9.958;2024-03-08T15:20:52;8.50;99.90
8152;DHT22;4117;53.622;9.958;2024-03-08T15:23:19;8.50;99.90
8152;DHT22;4117;53.622;9.958;2024-03-08T15:25:47;8.50;99.90
8152;DHT22;4117;53.622;9.958;2024-03-08T15:28:15;8.50;99.90
8152;DHT22;4117;53.622;9.958;2024-03-08T15:30:45;8.50;99.90
8152;DHT22;4117;53.622;9.958;2024-03-08T15:33:12;8.60;99.90
8152;DHT22;4117;53.622;9.958;2024-03-08T15:35:42;8.50;99.90
8152;DHT22;4117;53.622;9.958;2024-03-08T15:38:14;8.50;99.90
8152;DHT22;4117;53.622;9.958;2024-03-08T15:40:44;8.40;99.90
8152;DHT22;4117;53.622;9.958;2024-03-08T15:43:11;8.40;99.90
8152;DHT22;4117;53.622;9.958;2024-03-08T15:45:41;8.40;99.90
8152;DHT22;4117;53.622;9.958;2024-03-08T15:48:10;8.40;99.90
8152;DHT22;4117;53.622;9.958;2024-03-08T15:50:38;8.40;99.90
8152;DHT22;4117;53.622;9.958;2024-03-08T15:53:07;8.40;99.90
8152;DHT22;4117;53.622;9.958;2024-03-08T15:55:40;8.40;99.90
8152;DHT22;4117;53.622;9.958;2024-03-08T15:58:09;8.40;99.90
8152;DHT22;4117;53.622;9.958;2024-03-08T16:00:36;8.40;99.90
8152;DHT22;4117;53.622;9.958;2024-03-08T16:03:12;8.40;99.90
8152;DHT22;4117;53.622;9.958;2024-03-08T16:05:40;8.30;99.90
8152;DHT22;4117;53.622;9.958;2024-03-08T16:08:11;8.20;99.90
8152;DHT22;4117;53.622;9.958;2024-03-08T16:10:42;8.20;99.90
8152;DHT22;4117;53.622;9.958;2024-03-08T16:13:12;8.10;99.90
8152;DHT22;4117;53.622;9.958;2024-03-08T16:15:42;8.20;99.90
8152;DHT22;4117;53.622;9.958;2024-03-08T16:18:10;8.10;99.90
8152;DHT22;4117;53.622;9.958;2024-03-08T16:20:37;8.10;99.90
8152;DHT22;4117;53.622;9.958;2024-03-08T16:23:05;8.10;99.90